Time;durP1;ratioP1;P1;durP2;ratioP2;P2;SDS_P1;SDS_P2;PMS_P1;PMS_P2;Temp;Humidity;BMP_temperature;BMP_pressure;BME280_temperature;BME280_humidity;BME280_pressure;Samples;Min_cycle;Max_cycle;Signal;HPM_P1;HPM_P2
2022/03/31 00:00:31;;;;;;;3.92;1.67;;;;;;;19.96;42.49;100049.13;5052193;28;20096;-58
2022/03/31 00:02:58;;;;;;;5.72;1.85;;;;;;;19.95;42.47;100050.16;5052430;28;20035;-57
2022/03/31 00:05:23;;;;;;;3.70;1.35;;;;;;;19.94;42.44;100048.47;5052418;28;20468;-58
2022/03/31 00:07:48;;;;;;;4.97;1.65;;;;;;;19.93;42.44;100050.31;5051501;28;20052;-58
2022/03/31 00:10:18;;;;;;;4.63;1.30;;;;;;;19.90;42.49;100047.97;5052205;28;20044;-57
2022/03/31 00:12:43;;;;;;;4.35;1.70;;;;;;;19.90;42.22;100052.41;5052850;28;20057;-58
2022/03/31 00:15:09;;;;;;;4.60;1.75;;;;;;;19.88;42.20;100049.91;5051462;28;20053;-58
2022/03/31 00:17:34;;;;;;;3.40;1.30;;;;;;;19.87;42.14;100050.91;5052608;28;20087;-58
2022/03/31 00:22:48;;;;;;;5.28;1.50;;;;;;;19.83;42.28;100052.19;5030499;28;20046;-57
2022/03/31 00:25:13;;;;;;;4.68;1.40;;;;;;;19.83;42.28;100059.31;5049379;28;20033;-57
2022/03/31 00:27:39;;;;;;;3.58;1.45;;;;;;;19.81;42.30;100056.00;5051756;28;20323;-57
2022/03/31 00:30:08;;;;;;;4.45;1.52;;;;;;;19.78;42.37;100054.47;5052133;28;20073;-57
2022/03/31 00:32:34;;;;;;;4.00;1.42;;;;;;;19.78;42.46;100054.47;5052466;28;20032;-57
2022/03/31 00:35:00;;;;;;;5.05;1.55;;;;;;;19.78;42.22;100056.31;5051326;28;20025;-57
2022/03/31 00:37:37;;;;;;;4.55;1.50;;;;;;;19.76;42.47;100048.53;5052681;28;20048;-57
2022/03/31 00:40:04;;;;;;;3.67;1.40;;;;;;;19.75;42.31;100050.28;5052169;28;20025;-57
2022/03/31 00:42:29;;;;;;;4.53;1.50;;;;;;;19.75;42.37;100055.59;5051430;28;20029;-57
2022/03/31 00:44:55;;;;;;;3.28;1.30;;;;;;;19.73;42.21;100048.81;5051961;28;20037;-57
2022/03/31 00:47:20;;;;;;;3.60;1.60;;;;;;;19.73;42.18;100051.44;5052006;28;20524;-57
2022/03/31 00:49:46;;;;;;;5.20;1.50;;;;;;;19.71;42.27;100043.66;5051263;28;20116;-57
2022/03/31 00:52:12;;;;;;;3.97;1.55;;;;;;;19.71;42.25;100048.09;5052010;28;20049;-57
2022/03/31 00:54:39;;;;;;;3.90;1.52;;;;;;;19.70;42.31;100052.56;5052208;28;20453;-57
2022/03/31 00:57:12;;;;;;;4.82;1.50;;;;;;;19.68;42.24;100048.44;5051196;28;20120;-58
2022/03/31 00:59:38;;;;;;;3.78;1.63;;;;;;;19.67;42.30;100054.72;5052401;28;20112;-58
2022/03/31 01:02:08;;;;;;;3.97;1.60;;;;;;;19.66;42.06;100051.25;5051713;28;20080;-58
2022/03/31 01:04:36;;;;;;;4.93;1.50;;;;;;;19.65;42.06;100048.75;5052378;28;20114;-58
2022/03/31 01:07:05;;;;;;;4.28;1.73;;;;;;;19.65;42.30;100041.63;5051613;28;20028;-58
2022/03/31 01:09:32;;;;;;;4.90;1.90;;;;;;;19.64;42.18;100034.69;5051050;28;20095;-58
2022/03/31 01:11:58;;;;;;;3.88;1.70;;;;;;;19.63;42.14;100035.69;5051845;28;20033;-58
2022/03/31 01:14:23;;;;;;;4.45;1.80;;;;;;;19.63;42.18;100029.56;5051880;28;20027;-58
2022/03/31 01:16:49;;;;;;;5.40;1.98;;;;;;;19.62;42.05;100035.84;5050891;28;20029;-58
2022/03/31 01:19:14;;;;;;;5.57;1.92;;;;;;;19.60;41.98;100024.56;5055478;28;20055;-58
2022/03/31 01:21:42;;;;;;;3.30;1.70;;;;;;;19.60;42.05;100022.78;5055378;28;20029;-58
2022/03/31 01:24:10;;;;;;;5.47;1.70;;;;;;;19.60;42.14;100028.06;5054356;28;20427;-58
2022/03/31 01:26:38;;;;;;;3.83;1.60;;;;;;;19.59;42.42;100029.03;5055499;28;20075;-58
2022/03/31 01:29:05;;;;;;;3.90;1.77;;;;;;;19.58;42.30;100028.22;5055134;28;20075;-58
2022/03/31 01:31:30;;;;;;;4.97;1.90;;;;;;;19.56;42.22;100022.22;5054535;28;20476;-58
2022/03/31 01:34:02;;;;;;;3.88;1.77;;;;;;;19.55;42.16;100020.59;5054954;28;20033;-58
2022/03/31 01:36:27;;;;;;;6.07;1.90;;;;;;;19.54;42.39;100018.94;5055478;28;20056;-58
2022/03/31 01:38:56;;;;;;;4.55;1.88;;;;;;;19.55;42.12;100014.47;5054226;28;20021;-58
2022/03/31 01:41:22;;;;;;;4.70;2.00;;;;;;;19.53;42.17;100011.97;5055160;28;20021;-58
2022/03/31 01:43:50;;;;;;;6.55;1.80;;;;;;;19.52;42.36;100009.50;5055101;28;20100;-57
2022/03/31 01:46:16;;;;;;;4.57;1.77;;;;;;;19.51;42.14;100013.13;5054506;28;20021;-57
2022/03/31 01:48:45;;;;;;;4.78;1.70;;;;;;;19.50;42.33;100014.09;5055279;28;20487;-57
2022/03/31 01:51:12;;;;;;;3.50;1.48;;;;;;;19.49;42.45;100007.19;5054758;28;20111;-57
2022/03/31 01:53:38;;;;;;;3.75;1.67;;;;;;;19.49;42.28;100004.53;5054296;28;20035;-57
2022/03/31 01:56:04;;;;;;;5.13;1.90;;;;;;;19.48;42.45;100005.50;5054772;28;20036;-57
2022/03/31 01:58:30;;;;;;;4.20;1.85;;;;;;;19.47;42.16;100007.31;5054159;28;20024;-57
2022/03/31 02:00:57;;;;;;;4.60;1.90;;;;;;;19.46;42.56;100005.66;5054677;28;20020;-57
2022/03/31 02:03:23;;;;;;;4.35;1.88;;;;;;;19.45;42.55;99998.69;5055097;28;20029;-57
2022/03/31 02:05:49;;;;;;;4.68;1.88;;;;;;;19.45;42.54;99998.69;5053877;28;20029;-56
2022/03/31 02:08:14;;;;;;;4.93;1.95;;;;;;;19.44;42.78;99997.06;5054823;28;20021;-57
2022/03/31 02:10:40;;;;;;;4.50;1.90;;;;;;;19.44;42.54;99989.13;5054506;28;20107;-56
2022/03/31 02:13:07;;;;;;;4.72;2.22;;;;;;;19.45;42.11;99992.59;5053658;28;20443;-57
2022/03/31 02:15:34;;;;;;;4.78;2.20;;;;;;;19.44;42.48;99991.78;5054532;28;20033;-57
2022/03/31 02:18:01;;;;;;;4.38;1.90;;;;;;;19.44;42.50;99986.50;5054497;28;20036;-57
2022/03/31 02:20:30;;;;;;;5.55;2.15;;;;;;;19.43;42.63;99974.25;5053697;28;20120;-57
2022/03/31 02:23:00;;;;;;;3.90;1.90;;;;;;;19.42;42.52;99979.69;5054194;28;20052;-57
2022/03/31 02:25:26;;;;;;;5.25;1.83;;;;;;;19.41;42.63;99976.22;5054368;28;20104;-58
2022/03/31 02:27:52;;;;;;;5.10;2.20;;;;;;;19.40;42.56;99980.66;5053207;28;20032;-58
2022/03/31 02:30:19;;;;;;;4.25;1.83;;;;;;;19.38;42.71;99980.00;5054408;28;20032;-58
2022/03/31 02:32:44;;;;;;;5.38;2.20;;;;;;;19.38;42.72;99984.47;5054186;28;20465;-58
2022/03/31 02:35:11;;;;;;;5.32;2.17;;;;;;;19.36;42.60;99978.50;5053167;28;20036;-58
2022/03/31 02:37:36;;;;;;;6.68;2.30;;;;;;;19.37;43.15;99980.97;5054262;28;20028;-57
2022/03/31 02:40:02;;;;;;;5.47;2.28;;;;;;;19.40;43.53;99977.19;5053765;28;20037;-58
2022/03/31 02:42:28;;;;;;;4.50;2.30;;;;;;;19.43;43.58;99978.72;5053189;28;20163;-58
2022/03/31 02:44:53;;;;;;;5.80;2.53;;;;;;;19.44;43.25;99975.91;5054041;28;20049;-58
2022/03/31 02:47:18;;;;;;;4.47;2.00;;;;;;;19.46;42.84;99976.59;5054214;28;20021;-58
2022/03/31 02:49:44;;;;;;;4.93;1.67;;;;;;;19.48;43.52;99965.88;5053123;28;20319;-58
2022/03/31 02:52:09;;;;;;;7.20;2.00;;;;;;;19.50;43.43;99972.66;5053635;28;20290;-58
2022/03/31 02:57:24;;;;;;;4.88;1.90;;;;;;;19.52;43.14;99962.75;5054033;28;20594;-58
2022/03/31 02:59:49;;;;;;;6.18;1.85;;;;;;;19.53;42.76;99959.13;5053541;28;20041;-58
2022/03/31 03:02:15;;;;;;;4.23;1.73;;;;;;;19.53;42.94;99958.28;5052965;28;20028;-58
2022/03/31 03:04:40;;;;;;;4.53;1.80;;;;;;;19.53;42.86;99956.47;5053860;28;20297;-57
2022/03/31 03:07:05;;;;;;;4.80;1.85;;;;;;;19.54;43.18;99958.13;5053204;28;20501;-57
2022/03/31 03:09:31;;;;;;;5.20;1.70;;;;;;;19.54;42.93;99954.69;5052737;28;20068;-57
2022/03/31 03:11:57;;;;;;;4.70;1.70;;;;;;;19.55;42.63;99953.69;5053428;28;20389;-57
2022/03/31 03:14:22;;;;;;;5.10;1.70;;;;;;;19.56;42.68;99948.22;5053652;28;20487;-57
2022/03/31 03:16:48;;;;;;;5.90;2.05;;;;;;;19.56;42.76;99947.41;5052653;28;20465;-56
2022/03/31 03:19:13;;;;;;;4.18;1.58;;;;;;;19.56;42.96;99937.66;5053313;28;20040;-56
2022/03/31 03:21:38;;;;;;;5.77;1.87;;;;;;;19.56;42.44;99953.53;5053347;28;20477;-56
2022/03/31 03:24:04;;;;;;;4.57;1.60;;;;;;;19.56;42.16;99942.13;5052451;28;20524;-57
2022/03/31 03:26:30;;;;;;;5.18;1.60;;;;;;;19.56;42.18;99950.88;5053403;28;20029;-57
2022/03/31 03:28:56;;;;;;;5.75;1.40;;;;;;;19.55;42.04;99949.25;5053155;28;20162;-57
2022/03/31 03:31:21;;;;;;;5.40;1.73;;;;;;;19.55;42.32;99953.69;5052580;28;20380;-56
2022/03/31 03:33:52;;;;;;;5.28;1.52;;;;;;;19.56;42.73;99950.06;5053474;28;20043;-57
2022/03/31 03:36:17;;;;;;;4.18;1.30;;;;;;;19.55;42.31;99946.59;5053219;28;20499;-57
2022/03/31 03:38:43;;;;;;;4.38;1.48;;;;;;;19.56;42.44;99944.78;5052611;28;20486;-58
2022/03/31 03:41:13;;;;;;;4.30;1.40;;;;;;;19.57;42.47;99949.09;5052299;28;20029;-58
2022/03/31 03:43:39;;;;;;;4.65;1.40;;;;;;;19.57;42.42;99944.63;5053125;28;20025;-56
2022/03/31 03:46:07;;;;;;;3.95;1.42;;;;;;;19.58;42.54;99940.16;5051882;28;20391;-57
2022/03/31 03:48:34;;;;;;;4.60;1.40;;;;;;;19.56;42.20;99942.94;5053013;28;20029;-57
2022/03/31 03:50:59;;;;;;;3.70;1.20;;;;;;;19.58;42.44;99943.66;5051845;28;20122;-57
2022/03/31 03:53:25;;;;;;;3.08;1.30;;;;;;;19.58;42.49;99945.44;5053121;28;20464;-57
2022/03/31 03:55:51;;;;;;;3.70;1.20;;;;;;;19.58;42.12;99950.72;5052661;28;20028;-57
2022/03/31 03:58:18;;;;;;;2.30;0.90;;;;;;;19.59;42.20;99955.03;5052151;28;20141;-57
2022/03/31 04:00:43;;;;;;;5.20;1.45;;;;;;;19.58;42.21;99956.84;5052996;28;20075;-57
2022/03/31 04:03:09;;;;;;;2.83;1.35;;;;;;;19.58;42.06;99961.28;5052380;28;20021;-57
2022/03/31 04:05:34;;;;;;;5.18;1.30;;;;;;;19.57;42.29;99944.63;5052029;28;20029;-57
2022/03/31 04:08:00;;;;;;;5.28;1.30;;;;;;;19.57;42.22;99952.53;5052377;28;20025;-58
2022/03/31 04:10:25;;;;;;;2.33;0.90;;;;;;;19.57;41.94;99957.00;5052469;28;20052;-57
2022/03/31 04:12:50;;;;;;;2.97;1.08;;;;;;;19.56;42.01;99964.09;5051575;28;20104;-57
2022/03/31 04:15:16;;;;;;;4.30;1.30;;;;;;;19.55;42.21;99959.81;5052510;28;20029;-58
2022/03/31 04:17:42;;;;;;;2.20;1.00;;;;;;;19.55;42.16;99965.09;5052440;28;20031;-57
2022/03/31 04:20:08;;;;;;;3.63;1.05;;;;;;;19.55;41.76;99962.44;5051394;28;20029;-58
2022/03/31 04:22:40;;;;;;;2.08;1.00;;;;;;;19.55;41.43;99959.81;5052961;28;20028;-57
2022/03/31 04:25:07;;;;;;;3.33;1.10;;;;;;;19.55;41.89;99958.97;5052626;28;20078;-57
2022/03/31 04:27:37;;;;;;;3.55;1.10;;;;;;;19.53;41.93;99960.94;5051871;28;20071;-57
2022/03/31 04:30:05;;;;;;;3.58;1.10;;;;;;;19.53;41.75;99958.28;5051977;28;20051;-57
2022/03/31 04:32:36;;;;;;;3.17;1.00;;;;;;;19.53;41.98;99966.22;5052402;28;20043;-57
2022/03/31 04:35:02;;;;;;;2.78;1.02;;;;;;;19.53;41.90;99963.59;5051573;28;20404;-57
2022/03/31 04:37:27;;;;;;;2.95;0.98;;;;;;;19.54;42.06;99967.88;5051888;28;20119;-57
2022/03/31 04:39:52;;;;;;;3.50;0.90;;;;;;;19.53;42.29;99956.47;5051970;28;20473;-57
2022/03/31 04:42:19;;;;;;;3.90;1.20;;;;;;;19.53;41.82;99972.31;5051529;28;20033;-57
2022/03/31 04:44:47;;;;;;;3.90;1.05;;;;;;;19.53;41.95;99972.31;5052259;28;20021;-57
2022/03/31 04:47:13;;;;;;;3.22;1.00;;;;;;;19.53;41.85;99961.75;5051055;28;20432;-57
2022/03/31 04:49:38;;;;;;;3.70;0.90;;;;;;;19.53;41.89;99959.13;5052270;28;20018;-57
2022/03/31 04:52:07;;;;;;;4.65;0.95;;;;;;;19.52;41.92;99962.75;5052253;28;20028;-57
2022/03/31 04:54:32;;;;;;;2.78;0.98;;;;;;;19.53;42.24;99974.16;5055394;28;20518;-57
2022/03/31 04:57:00;;;;;;;3.60;0.90;;;;;;;19.54;41.74;99970.53;5055695;28;20025;-57
2022/03/31 04:59:28;;;;;;;3.67;0.90;;;;;;;19.52;41.98;99970.69;5055851;28;20274;-57
2022/03/31 05:01:54;;;;;;;2.38;0.90;;;;;;;19.51;41.77;99969.03;5055089;28;20032;-57
2022/03/31 05:04:22;;;;;;;2.63;1.08;;;;;;;19.51;41.96;99974.31;5055834;28;20044;-57
2022/03/31 05:06:47;;;;;;;2.20;0.90;;;;;;;19.51;41.92;99960.28;5055843;28;20029;-57
2022/03/31 05:09:12;;;;;;;2.30;0.80;;;;;;;19.49;41.42;99971.00;5054610;28;20037;-57
2022/03/31 05:11:37;;;;;;;2.38;0.77;;;;;;;19.51;41.86;99968.19;5055586;28;20036;-58
2022/03/31 05:14:03;;;;;;;3.03;0.80;;;;;;;19.52;41.99;99975.97;5055284;28;20017;-56
2022/03/31 05:16:31;;;;;;;2.57;0.77;;;;;;;19.56;42.46;99976.50;5054801;28;20017;-56
2022/03/31 05:18:56;;;;;;;2.75;0.70;;;;;;;19.60;42.60;99974.34;5055408;28;20270;-57
2022/03/31 05:21:21;;;;;;;1.75;0.70;;;;;;;19.63;42.60;99969.59;5055397;28;20495;-58
2022/03/31 05:23:48;;;;;;;2.60;0.70;;;;;;;19.67;43.50;99970.94;5054594;28;20116;-58
2022/03/31 05:26:13;;;;;;;2.30;0.70;;;;;;;19.70;43.03;99965.34;5055394;28;20637;-58
2022/03/31 05:28:42;;;;;;;3.13;0.77;;;;;;;19.72;43.08;99976.59;5055328;28;20104;-58
2022/03/31 05:31:07;;;;;;;1.85;0.75;;;;;;;19.76;43.29;99969.22;5054086;28;20796;-58
2022/03/31 05:33:34;;;;;;;3.55;0.88;;;;;;;19.78;43.24;99972.53;5055536;28;20029;-58
2022/03/31 05:36:01;;;;;;;2.50;0.75;;;;;;;19.80;43.10;99973.19;5054948;28;20476;-57
2022/03/31 05:38:26;;;;;;;2.80;0.70;;;;;;;19.82;43.05;99975.69;5054368;28;20538;-58
2022/03/31 05:40:52;;;;;;;3.20;0.82;;;;;;;19.81;43.40;99974.03;5054943;28;20025;-58
2022/03/31 05:43:17;;;;;;;2.57;0.73;;;;;;;19.84;43.27;99973.72;5055003;28;20025;-58
2022/03/31 05:45:42;;;;;;;2.58;0.60;;;;;;;19.86;43.14;99979.69;5054499;28;20371;-58
2022/03/31 05:48:08;;;;;;;2.70;0.80;;;;;;;19.87;43.33;99973.41;5054957;28;20032;-58
2022/03/31 05:50:33;;;;;;;3.03;0.80;;;;;;;19.88;43.41;99975.88;5054277;28;20288;-58
2022/03/31 05:52:58;;;;;;;2.33;0.75;;;;;;;19.88;43.34;99973.22;5054588;28;20472;-58
2022/03/31 05:55:23;;;;;;;1.60;0.60;;;;;;;19.91;43.23;99977.38;5054963;28;20155;-58
2022/03/31 05:57:52;;;;;;;2.05;0.60;;;;;;;19.93;43.09;99975.41;5053667;28;20033;-58
2022/03/31 06:00:19;;;;;;;2.05;0.75;;;;;;;19.95;40.39;99968.16;5054696;28;20542;-57
2022/03/31 06:02:46;;;;;;;3.25;0.98;;;;;;;19.97;41.87;99968.00;5054752;28;20029;-57
2022/03/31 06:05:18;;;;;;;2.33;0.68;;;;;;;19.96;42.48;99963.69;5053548;28;20468;-57
2022/03/31 06:07:43;;;;;;;2.60;0.80;;;;;;;19.98;42.73;99964.34;5054629;28;20029;-57
2022/03/31 06:10:09;;;;;;;2.45;0.70;;;;;;;20.00;42.80;99970.34;5054149;28;20056;-57
2022/03/31 06:12:34;;;;;;;2.40;0.70;;;;;;;20.03;42.78;99965.56;5053673;28;20468;-56
2022/03/31 06:15:01;;;;;;;1.73;0.68;;;;;;;20.06;42.74;99967.03;5054132;28;20037;-56
2022/03/31 06:17:26;;;;;;;2.72;0.70;;;;;;;20.07;42.60;99966.06;5054402;28;20059;-57
2022/03/31 06:19:52;;;;;;;3.10;0.70;;;;;;;20.08;42.80;99968.56;5053131;28;20018;-56
2022/03/31 06:22:17;;;;;;;3.00;0.70;;;;;;;20.11;43.07;99970.06;5054205;28;20115;-60
2022/03/31 06:24:42;;;;;;;3.97;0.88;;;;;;;20.13;42.84;99969.91;5054226;28;20036;-59
2022/03/31 06:27:08;;;;;;;2.88;0.63;;;;;;;20.13;43.00;99973.38;5053177;28;20389;-59
2022/03/31 06:29:34;;;;;;;3.42;0.88;;;;;;;20.14;43.12;99976.84;5054498;28;20021;-59
2022/03/31 06:32:02;;;;;;;2.28;0.88;;;;;;;20.13;43.13;99977.84;5053919;28;20413;-58
2022/03/31 06:34:27;;;;;;;2.90;0.73;;;;;;;20.09;43.16;99980.78;5053403;28;20029;-57
2022/03/31 06:36:54;;;;;;;4.10;0.70;;;;;;;20.07;43.35;99979.28;5054451;28;20082;-57
2022/03/31 06:39:19;;;;;;;2.42;0.60;;;;;;;20.07;43.44;99981.94;5054167;28;20032;-56
2022/03/31 06:41:44;;;;;;;1.90;0.68;;;;;;;20.10;43.27;99989.56;5053274;28;20021;-56
2022/03/31 06:44:13;;;;;;;2.47;0.60;;;;;;;20.13;43.36;99985.78;5054000;28;20039;-55
2022/03/31 06:46:39;;;;;;;2.63;0.70;;;;;;;20.14;43.19;99982.97;5054257;28;20025;-55
2022/03/31 06:49:04;;;;;;;3.63;0.80;;;;;;;20.16;43.32;99988.09;5053282;28;20032;-56
2022/03/31 06:51:29;;;;;;;2.17;0.60;;;;;;;20.15;43.41;99981.16;5053937;28;20029;-57
2022/03/31 06:53:58;;;;;;;2.33;0.70;;;;;;;20.16;43.33;99982.81;5052844;28;20484;-57
2022/03/31 06:56:27;;;;;;;3.97;0.70;;;;;;;20.16;43.70;99982.81;5053650;28;20389;-57
2022/03/31 06:58:53;;;;;;;1.23;0.40;;;;;;;20.15;43.78;99984.59;5053366;28;20511;-56
2022/03/31 07:01:18;;;;;;;3.38;0.88;;;;;;;20.19;43.55;99990.44;5053130;28;20032;-57
2022/03/31 07:03:45;;;;;;;3.57;0.60;;;;;;;20.20;43.61;99982.34;5053787;28;20029;-56
2022/03/31 07:06:23;;;;;;;3.35;0.65;;;;;;;20.23;43.76;99979.34;5055079;28;20274;-59
2022/03/31 07:08:48;;;;;;;3.38;0.70;;;;;;;20.29;43.05;99975.25;5053225;28;20079;-59
2022/03/31 07:11:14;;;;;;;2.80;0.90;;;;;;;20.37;43.05;99974.44;5053463;28;20053;-59
2022/03/31 07:13:40;;;;;;;1.98;0.60;;;;;;;20.48;42.72;99977.63;5054915;28;20037;-58
2022/03/31 07:16:05;;;;;;;2.75;0.70;;;;;;;20.56;42.38;99978.66;5052313;28;20028;-57
2022/03/31 07:18:31;;;;;;;2.45;0.52;;;;;;;20.63;42.19;99983.13;5053586;28;20091;-58
2022/03/31 07:20:59;;;;;;;4.15;0.90;;;;;;;20.69;41.93;99976.38;5053030;28;20041;-59
2022/03/31 07:23:25;;;;;;;2.33;0.65;;;;;;;20.77;41.79;99975.56;5052816;28;20023;-57
2022/03/31 07:25:54;;;;;;;3.25;0.85;;;;;;;20.80;41.74;99978.72;5053234;28;20151;-58
2022/03/31 07:28:21;;;;;;;2.45;0.75;;;;;;;20.79;41.56;99981.53;5053677;28;20412;-58
2022/03/31 07:30:47;;;;;;;2.72;0.68;;;;;;;20.79;41.59;99979.72;5052726;28;20029;-60
2022/03/31 07:33:12;;;;;;;2.55;0.57;;;;;;;20.82;41.52;99981.19;5052917;28;20025;-58
2022/03/31 07:35:38;;;;;;;3.10;0.63;;;;;;;20.80;41.64;99981.38;5053338;28;20111;-59
2022/03/31 07:38:07;;;;;;;2.55;0.65;;;;;;;20.81;41.96;99985.69;5052146;28;20150;-56
2022/03/31 07:40:37;;;;;;;2.13;0.63;;;;;;;20.81;41.39;99985.69;5053252;28;20035;-57
2022/03/31 07:43:04;;;;;;;2.88;0.70;;;;;;;20.79;41.39;99984.16;5052281;28;20029;-59
2022/03/31 07:45:30;;;;;;;2.80;0.80;;;;;;;20.74;41.16;99987.31;5053178;28;20033;-59
2022/03/31 07:47:55;;;;;;;2.58;0.70;;;;;;;20.73;41.52;99990.97;5053823;28;20024;-57
2022/03/31 07:50:21;;;;;;;1.70;0.47;;;;;;;20.73;41.59;99982.16;5054236;28;20107;-59
2022/03/31 07:52:48;;;;;;;3.30;0.80;;;;;;;20.75;41.59;99981.03;5054738;28;20430;-58
2022/03/31 07:55:15;;;;;;;2.50;0.70;;;;;;;20.76;41.58;99985.34;5054220;28;20029;-60
2022/03/31 07:57:40;;;;;;;2.92;0.70;;;;;;;20.76;41.37;99982.69;5052967;28;20044;-60
2022/03/31 08:00:07;;;;;;;2.67;0.65;;;;;;;20.77;41.44;99986.16;5052938;28;20036;-59
2022/03/31 08:02:33;;;;;;;2.53;0.63;;;;;;;20.77;41.44;99984.34;5053239;28;20064;-59
2022/03/31 08:04:58;;;;;;;2.20;0.60;;;;;;;20.76;41.45;99976.56;5051970;28;20052;-59
2022/03/31 08:07:23;;;;;;;4.60;0.60;;;;;;;20.76;41.50;99979.19;5053939;28;20040;-59
2022/03/31 08:09:49;;;;;;;4.68;0.68;;;;;;;20.75;41.39;99972.25;5053089;28;20037;-58
2022/03/31 08:12:17;;;;;;;3.47;0.77;;;;;;;20.73;41.28;99976.88;5052737;28;20405;-60
2022/03/31 08:14:45;;;;;;;3.75;1.00;;;;;;;20.69;41.55;99968.44;5053177;28;20273;-59
2022/03/31 08:17:10;;;;;;;2.45;0.90;;;;;;;20.61;40.26;99965.75;5052782;28;20062;-59
2022/03/31 08:19:36;;;;;;;2.77;0.70;;;;;;;20.59;41.49;99967.75;5052351;28;20025;-60
2022/03/31 08:22:02;;;;;;;3.28;0.77;;;;;;;20.56;41.71;99963.59;5053474;28;20783;-60
2022/03/31 08:24:31;;;;;;;2.00;0.57;;;;;;;20.58;41.86;99966.88;5052941;28;20085;-58
2022/03/31 08:26:58;;;;;;;2.90;0.60;;;;;;;20.61;41.81;99971.84;5054329;28;20465;-63
2022/03/31 08:29:25;;;;;;;2.35;0.60;;;;;;;20.63;41.83;99971.69;5057654;28;20017;-57
2022/03/31 08:31:50;;;;;;;3.13;0.70;;;;;;;20.63;41.82;99969.91;5057054;28;20033;-57
2022/03/31 08:34:15;;;;;;;3.50;0.80;;;;;;;20.65;41.82;99975.06;5055900;28;20028;-55
2022/03/31 08:36:41;;;;;;;2.38;0.70;;;;;;;20.64;41.77;99974.22;5056842;28;20070;-58
2022/03/31 08:39:06;;;;;;;3.80;1.00;;;;;;;20.63;41.77;99977.00;5056178;28;20021;-56
2022/03/31 08:41:32;;;;;;;4.03;0.70;;;;;;;20.63;41.91;99974.34;5055670;28;20028;-58
2022/03/31 08:43:58;;;;;;;3.17;0.70;;;;;;;20.60;41.79;99977.31;5056315;28;20036;-58
2022/03/31 08:46:29;;;;;;;2.40;0.70;;;;;;;20.58;41.89;99980.13;5055894;28;20025;-59
2022/03/31 08:48:56;;;;;;;2.75;0.68;;;;;;;20.56;42.06;99976.81;5056021;28;20033;-57
2022/03/31 08:51:21;;;;;;;2.20;0.90;;;;;;;20.59;42.14;99980.97;5056421;28;20115;-57
2022/03/31 08:53:47;;;;;;;2.75;0.80;;;;;;;20.60;41.71;99975.50;5055546;28;20440;-58
2022/03/31 08:56:12;;;;;;;3.53;0.80;;;;;;;20.60;41.87;99978.16;5055993;28;20032;-59
2022/03/31 08:58:37;;;;;;;4.80;1.10;;;;;;;20.56;41.73;99979.47;5056511;28;20025;-59
2022/03/31 09:01:03;;;;;;;2.80;0.80;;;;;;;20.59;41.52;99978.31;5055114;28;20484;-59
2022/03/31 09:03:37;;;;;;;5.82;0.98;;;;;;;20.60;41.65;99980.81;5056209;28;20033;-57
2022/03/31 09:06:03;;;;;;;2.88;0.88;;;;;;;20.61;41.72;99984.28;5055665;28;20380;-58
2022/03/31 09:08:29;;;;;;;3.03;0.85;;;;;;;20.58;41.67;99984.59;5055490;28;20052;-59
2022/03/31 09:11:00;;;;;;;3.17;0.90;;;;;;;20.55;41.63;99985.72;5055548;28;20500;-58
2022/03/31 09:13:30;;;;;;;2.80;0.80;;;;;;;20.53;41.78;99994.84;5056036;28;20021;-59
2022/03/31 09:16:01;;;;;;;4.43;1.17;;;;;;;20.51;41.90;99981.78;5054825;28;20029;-58
2022/03/31 09:18:31;;;;;;;2.38;0.80;;;;;;;20.52;41.75;99985.25;5056072;28;20032;-59
2022/03/31 09:20:59;;;;;;;2.22;0.80;;;;;;;20.52;41.82;99982.59;5055423;28;20033;-58
2022/03/31 09:23:27;;;;;;;1.98;0.82;;;;;;;20.48;41.53;99985.56;5055134;28;20021;-57
2022/03/31 09:26:00;;;;;;;4.03;0.73;;;;;;;20.45;41.56;99988.53;5055400;28;20021;-57
2022/03/31 09:28:25;;;;;;;3.03;0.75;;;;;;;20.44;41.76;99986.88;5055583;28;20558;-58
2022/03/31 09:30:55;;;;;;;3.67;0.80;;;;;;;20.44;41.74;99992.19;5054698;28;20028;-57
2022/03/31 09:33:26;;;;;;;3.38;0.80;;;;;;;20.44;42.03;99994.81;5055707;28;20349;-58
2022/03/31 09:36:04;;;;;;;2.72;0.90;;;;;;;20.48;41.78;99990.03;5054401;28;20559;-57
2022/03/31 09:38:32;;;;;;;2.70;0.82;;;;;;;20.51;41.54;99986.25;5054748;28;20107;-58
2022/03/31 09:40:58;;;;;;;2.75;0.80;;;;;;;20.51;39.91;99996.84;5055908;28;20536;-60
2022/03/31 09:43:24;;;;;;;3.72;0.80;;;;;;;20.52;41.22;99991.38;5055311;28;20109;-59
2022/03/31 09:45:52;;;;;;;3.85;0.90;;;;;;;20.52;41.30;99982.59;5054977;28;20039;-59
2022/03/31 09:48:26;;;;;;;4.10;0.90;;;;;;;20.50;41.65;99988.03;5055527;28;20021;-59
2022/03/31 09:50:53;;;;;;;;;;;;;;;20.47;41.53;99989.22;5054650;28;20036;-59
2022/03/31 09:53:18;;;;;;;3.15;0.90;;;;;;;20.45;41.75;99991.16;5055071;28;19941;-59
2022/03/31 09:55:45;;;;;;;4.25;0.80;;;;;;;20.44;41.87;99993.97;5055248;28;20061;-59
2022/03/31 09:58:18;;;;;;;3.92;1.10;;;;;;;20.42;41.76;99991.50;5053937;28;20020;-59
2022/03/31 10:00:44;;;;;;;2.88;0.77;;;;;;;20.41;41.78;99989.84;5055097;28;20029;-58
2022/03/31 10:03:13;;;;;;;2.83;0.90;;;;;;;20.38;41.83;99979.59;5054804;28;20396;-58
2022/03/31 10:05:39;;;;;;;3.20;0.90;;;;;;;20.36;42.22;99984.22;5053972;28;20388;-59
2022/03/31 10:08:10;;;;;;;3.55;0.90;;;;;;;20.37;42.20;99974.44;5054809;28;20029;-58
2022/03/31 10:10:37;;;;;;;2.45;1.00;;;;;;;20.39;42.49;99980.41;5054160;28;20048;-60
2022/03/31 10:13:22;;;;;;;2.85;0.90;;;;;;;20.46;42.16;99978.78;5054012;28;20040;-58
2022/03/31 10:15:56;;;;;;;3.22;1.10;;;;;;;20.53;42.15;99981.63;5054643;28;20033;-59
2022/03/31 10:18:21;;;;;;;3.92;0.88;;;;;;;20.57;41.89;99975.00;5053990;28;20032;-59
2022/03/31 10:20:59;;;;;;;3.80;1.00;;;;;;;20.59;41.92;99976.50;5054508;28;20041;-59
2022/03/31 10:26:21;;;;;;;4.35;0.77;;;;;;;20.55;42.50;99977.78;5053758;28;20203;-59
2022/03/31 10:29:01;;;;;;;3.92;1.05;;;;;;;20.55;41.82;99985.72;5054462;28;20091;-59
2022/03/31 10:31:40;;;;;;;3.13;0.85;;;;;;;20.55;41.91;99984.91;5054076;28;20021;-58
2022/03/31 10:34:07;;;;;;;2.90;0.88;;;;;;;20.57;42.09;99986.44;5053313;28;20116;-58
2022/03/31 10:36:45;;;;;;;2.95;0.98;;;;;;;20.60;42.13;99979.97;5054384;28;20029;-60
2022/03/31 10:39:22;;;;;;;3.20;1.00;;;;;;;20.62;41.98;99983.28;5053318;28;20405;-56
2022/03/31 10:41:59;;;;;;;4.05;1.05;;;;;;;20.62;42.11;99975.34;5054448;28;20044;-60
2022/03/31 10:44:25;;;;;;;2.95;0.85;;;;;;;20.62;41.96;99981.47;5054336;28;20104;-59
2022/03/31 10:47:04;;;;;;;2.08;0.80;;;;;;;20.64;41.92;99983.97;5053100;28;20167;-60
2022/03/31 10:49:31;;;;;;;2.30;1.00;;;;;;;20.63;42.04;99974.34;5053570;28;20033;-59
2022/03/31 10:51:58;;;;;;;4.05;1.05;;;;;;;20.63;41.72;99979.63;5053186;28;20029;-59
2022/03/31 10:54:30;;;;;;;3.85;1.10;;;;;;;20.60;41.86;99970.22;5053438;28;20040;-59
2022/03/31 10:57:12;;;;;;;4.00;0.95;;;;;;;20.59;41.89;99970.38;5053729;28;20086;-58
2022/03/31 10:59:38;;;;;;;2.50;0.85;;;;;;;20.56;41.80;99966.22;5054171;28;20041;-58
2022/03/31 11:02:34;;;;;;;3.30;0.80;;;;;;;20.55;41.77;99966.38;5053152;28;20036;-58
2022/03/31 11:05:02;;;;;;;2.85;1.40;;;;;;;20.51;42.00;99965.06;5053265;28;20041;-58
2022/03/31 11:07:28;;;;;;;3.95;1.10;;;;;;;20.50;42.01;99966.88;5053204;28;20107;-58
2022/03/31 11:10:13;;;;;;;4.00;1.08;;;;;;;20.47;42.33;99965.41;5053259;28;20068;-58
2022/03/31 11:12:40;;;;;;;2.70;0.82;;;;;;;20.48;42.28;99968.84;5053607;28;20048;-58
2022/03/31 11:15:08;;;;;;;3.42;1.08;;;;;;;20.48;42.33;99967.03;5052689;28;20029;-59
2022/03/31 11:17:35;;;;;;;3.22;0.80;;;;;;;20.50;42.45;99971.34;5053495;28;20526;-58
2022/03/31 11:20:06;;;;;;;2.50;0.90;;;;;;;20.51;42.44;99957.94;5053200;28;20028;-59
2022/03/31 11:22:31;;;;;;;3.72;0.90;;;;;;;20.50;42.28;99953.63;5052906;28;20039;-59
2022/03/31 11:25:12;;;;;;;2.97;1.05;;;;;;;20.52;42.26;99950.84;5053123;28;20025;-58
2022/03/31 11:27:39;;;;;;;2.35;0.90;;;;;;;20.54;42.12;99952.34;5053310;28;20472;-59
2022/03/31 11:30:06;;;;;;;2.90;1.20;;;;;;;20.58;42.23;99948.34;5052087;28;20025;-60
2022/03/31 11:32:34;;;;;;;3.33;1.02;;;;;;;20.61;42.17;99942.75;5053242;28;20060;-59
2022/03/31 11:34:59;;;;;;;4.80;1.20;;;;;;;20.67;42.01;99943.94;5052923;28;20025;-60
2022/03/31 11:37:24;;;;;;;3.35;1.00;;;;;;;20.71;41.86;99944.44;5052156;28;20481;-59
2022/03/31 11:39:50;;;;;;;3.47;1.20;;;;;;;20.70;41.48;99943.63;5052676;28;20078;-58